Amanda, Ohio
Current Conditions -  °F | °C
As of 8:53 AM on Thursday 23 Oct 2014 (Local Time) from KLHQ Reporting Station
Haze Haze  
Wind Chill: 40°   Ceiling: 400
Heat Index: 43°   Visibility: 3mi
Dew Point: 41°   Wind: 5mph
Humidity: 93%   Direction: 10°N
Pressure: 30.24"   Gusts: NA
Location:  39.65°N, 82.74°W
Report Text: KLHQ 231253Z AUTO 01004KT 3SM BR OVC004 06/05 A3024 RMK AO2 SLP243 T00610050
Loading
Personal Weather Stations






























Interactive Weather Map
Tropical Storm Tracking
New forecast layout! Learn more

10-Day Weather Forecast

Advertisements
Track Severe Weather on mobile